sensor_id;sensor_type;location;lat;lon;timestamp;P1;durP1;ratioP1;P2;durP2;ratioP2
60006;SDS011;45863;50.336;3.536;2022-09-29T00:02:00;10.85;;;5.60;;
60006;SDS011;45863;50.336;3.536;2022-09-29T00:07:20;10.50;;;5.95;;
60006;SDS011;45863;50.336;3.536;2022-09-29T00:09:59;9.80;;;5.22;;
60006;SDS011;45863;50.336;3.536;2022-09-29T00:12:29;15.13;;;6.10;;
60006;SDS011;45863;50.336;3.536;2022-09-29T00:15:04;8.32;;;4.90;;
60006;SDS011;45863;50.336;3.536;2022-09-29T00:17:32;12.77;;;5.95;;
60006;SDS011;45863;50.336;3.536;2022-09-29T00:19:57;10.18;;;5.47;;
60006;SDS011;45863;50.336;3.536;2022-09-29T00:22:26;12.82;;;6.25;;
60006;SDS011;45863;50.336;3.536;2022-09-29T00:24:51;9.48;;;5.75;;
60006;SDS011;45863;50.336;3.536;2022-09-29T00:27:17;14.20;;;6.15;;
60006;SDS011;45863;50.336;3.536;2022-09-29T00:29:43;9.07;;;5.00;;
60006;SDS011;45863;50.336;3.536;2022-09-29T00:32:08;10.63;;;5.60;;
60006;SDS011;45863;50.336;3.536;2022-09-29T00:34:34;11.00;;;5.30;;
60006;SDS011;45863;50.336;3.536;2022-09-29T00:37:02;12.13;;;6.25;;
60006;SDS011;45863;50.336;3.536;2022-09-29T00:39:35;11.50;;;5.70;;
60006;SDS011;45863;50.336;3.536;2022-09-29T00:42:00;9.75;;;5.30;;
60006;SDS011;45863;50.336;3.536;2022-09-29T00:47:13;9.15;;;5.53;;
60006;SDS011;45863;50.336;3.536;2022-09-29T00:52:46;11.77;;;5.75;;
60006;SDS011;45863;50.336;3.536;2022-09-29T00:57:51;10.65;;;5.53;;
60006;SDS011;45863;50.336;3.536;2022-09-29T01:00:17;12.93;;;6.32;;
60006;SDS011;45863;50.336;3.536;2022-09-29T01:02:53;11.38;;;5.50;;
60006;SDS011;45863;50.336;3.536;2022-09-29T01:05:25;11.45;;;5.40;;
60006;SDS011;45863;50.336;3.536;2022-09-29T01:07:52;12.48;;;6.10;;
60006;SDS011;45863;50.336;3.536;2022-09-29T01:10:17;11.07;;;5.53;;
60006;SDS011;45863;50.336;3.536;2022-09-29T01:12:44;13.05;;;5.22;;
60006;SDS011;45863;50.336;3.536;2022-09-29T01:15:09;11.27;;;5.25;;
60006;SDS011;45863;50.336;3.536;2022-09-29T01:17:35;12.40;;;5.20;;
60006;SDS011;45863;50.336;3.536;2022-09-29T01:25:07;9.63;;;4.97;;
60006;SDS011;45863;50.336;3.536;2022-09-29T01:30:13;10.55;;;5.50;;
60006;SDS011;45863;50.336;3.536;2022-09-29T01:38:21;9.70;;;5.15;;
60006;SDS011;45863;50.336;3.536;2022-09-29T01:40:58;8.73;;;4.80;;
60006;SDS011;45863;50.336;3.536;2022-09-29T01:43:32;10.88;;;5.65;;
60006;SDS011;45863;50.336;3.536;2022-09-29T01:48:24;10.25;;;5.07;;
60006;SDS011;45863;50.336;3.536;2022-09-29T01:50:52;10.05;;;5.00;;
60006;SDS011;45863;50.336;3.536;2022-09-29T01:53:20;7.80;;;4.80;;
60006;SDS011;45863;50.336;3.536;2022-09-29T01:55:50;9.25;;;4.25;;
60006;SDS011;45863;50.336;3.536;2022-09-29T01:58:21;9.73;;;5.00;;
60006;SDS011;45863;50.336;3.536;2022-09-29T02:00:49;7.75;;;4.53;;
60006;SDS011;45863;50.336;3.536;2022-09-29T02:08:10;10.18;;;4.25;;
60006;SDS011;45863;50.336;3.536;2022-09-29T02:10:40;8.45;;;4.53;;
60006;SDS011;45863;50.336;3.536;2022-09-29T02:13:06;7.88;;;4.63;;
60006;SDS011;45863;50.336;3.536;2022-09-29T02:15:34;12.13;;;4.70;;
60006;SDS011;45863;50.336;3.536;2022-09-29T02:18:10;10.20;;;4.47;;
60006;SDS011;45863;50.336;3.536;2022-09-29T02:20:37;8.70;;;4.57;;
60006;SDS011;45863;50.336;3.536;2022-09-29T02:23:02;10.43;;;5.00;;
60006;SDS011;45863;50.336;3.536;2022-09-29T02:25:28;10.05;;;4.70;;
60006;SDS011;45863;50.336;3.536;2022-09-29T02:27:53;10.27;;;4.17;;
60006;SDS011;45863;50.336;3.536;2022-09-29T02:30:18;9.38;;;4.65;;
60006;SDS011;45863;50.336;3.536;2022-09-29T02:32:46;9.18;;;4.63;;
60006;SDS011;45863;50.336;3.536;2022-09-29T02:35:12;9.57;;;5.07;;
60006;SDS011;45863;50.336;3.536;2022-09-29T02:37:51;8.98;;;4.47;;
60006;SDS011;45863;50.336;3.536;2022-09-29T02:40:40;7.57;;;4.10;;
60006;SDS011;45863;50.336;3.536;2022-09-29T02:51:09;11.00;;;5.00;;
60006;SDS011;45863;50.336;3.536;2022-09-29T02:56:03;9.43;;;4.72;;
60006;SDS011;45863;50.336;3.536;2022-09-29T02:58:37;7.00;;;3.63;;
60006;SDS011;45863;50.336;3.536;2022-09-29T03:01:04;8.65;;;4.70;;
60006;SDS011;45863;50.336;3.536;2022-09-29T03:03:30;9.73;;;4.65;;
60006;SDS011;45863;50.336;3.536;2022-09-29T03:05:55;9.57;;;4.15;;
60006;SDS011;45863;50.336;3.536;2022-09-29T03:08:20;9.05;;;4.68;;
60006;SDS011;45863;50.336;3.536;2022-09-29T03:10:46;8.02;;;4.43;;
60006;SDS011;45863;50.336;3.536;2022-09-29T03:13:11;12.07;;;4.25;;
60006;SDS011;45863;50.336;3.536;2022-09-29T03:15:36;9.53;;;4.27;;
60006;SDS011;45863;50.336;3.536;2022-09-29T03:18:01;8.82;;;4.60;;
60006;SDS011;45863;50.336;3.536;2022-09-29T03:20:28;9.23;;;4.55;;
60006;SDS011;45863;50.336;3.536;2022-09-29T03:22:56;9.00;;;4.32;;
60006;SDS011;45863;50.336;3.536;2022-09-29T03:25:22;9.65;;;4.47;;
60006;SDS011;45863;50.336;3.536;2022-09-29T03:27:48;11.68;;;4.72;;
60006;SDS011;45863;50.336;3.536;2022-09-29T03:30:14;7.68;;;4.28;;
60006;SDS011;45863;50.336;3.536;2022-09-29T03:32:39;10.35;;;4.53;;
60006;SDS011;45863;50.336;3.536;2022-09-29T03:35:05;9.02;;;4.47;;
60006;SDS011;45863;50.336;3.536;2022-09-29T03:37:30;10.63;;;5.68;;
60006;SDS011;45863;50.336;3.536;2022-09-29T03:39:55;9.07;;;4.73;;
60006;SDS011;45863;50.336;3.536;2022-09-29T03:42:21;9.48;;;4.80;;
60006;SDS011;45863;50.336;3.536;2022-09-29T03:44:48;9.90;;;4.78;;
60006;SDS011;45863;50.336;3.536;2022-09-29T03:47:13;14.35;;;5.00;;
60006;SDS011;45863;50.336;3.536;2022-09-29T03:49:38;10.10;;;4.83;;
60006;SDS011;45863;50.336;3.536;2022-09-29T03:52:03;9.77;;;4.78;;
60006;SDS011;45863;50.336;3.536;2022-09-29T03:54:29;9.45;;;4.63;;
60006;SDS011;45863;50.336;3.536;2022-09-29T03:56:54;10.18;;;5.22;;
60006;SDS011;45863;50.336;3.536;2022-09-29T03:59:19;11.93;;;4.80;;
60006;SDS011;45863;50.336;3.536;2022-09-29T04:01:45;7.88;;;4.55;;
60006;SDS011;45863;50.336;3.536;2022-09-29T04:04:10;9.60;;;4.90;;
60006;SDS011;45863;50.336;3.536;2022-09-29T04:06:36;10.05;;;4.78;;
60006;SDS011;45863;50.336;3.536;2022-09-29T04:09:02;9.73;;;4.50;;
60006;SDS011;45863;50.336;3.536;2022-09-29T04:11:27;10.90;;;4.95;;
60006;SDS011;45863;50.336;3.536;2022-09-29T04:13:52;11.80;;;4.97;;
60006;SDS011;45863;50.336;3.536;2022-09-29T04:16:18;11.25;;;5.00;;
60006;SDS011;45863;50.336;3.536;2022-09-29T04:18:43;14.07;;;4.43;;
60006;SDS011;45863;50.336;3.536;2022-09-29T04:21:08;10.07;;;4.90;;
60006;SDS011;45863;50.336;3.536;2022-09-29T04:23:34;10.77;;;4.40;;
60006;SDS011;45863;50.336;3.536;2022-09-29T04:26:00;8.35;;;4.60;;
60006;SDS011;45863;50.336;3.536;2022-09-29T04:28:30;11.18;;;4.82;;
60006;SDS011;45863;50.336;3.536;2022-09-29T04:30:55;8.93;;;5.78;;
60006;SDS011;45863;50.336;3.536;2022-09-29T04:33:20;14.15;;;5.07;;
60006;SDS011;45863;50.336;3.536;2022-09-29T04:35:45;8.70;;;4.80;;
60006;SDS011;45863;50.336;3.536;2022-09-29T04:38:11;10.10;;;5.00;;
60006;SDS011;45863;50.336;3.536;2022-09-29T04:40:36;10.52;;;4.47;;
60006;SDS011;45863;50.336;3.536;2022-09-29T04:43:02;10.83;;;4.53;;
60006;SDS011;45863;50.336;3.536;2022-09-29T04:45:28;12.63;;;4.32;;
60006;SDS011;45863;50.336;3.536;2022-09-29T04:47:56;9.52;;;5.05;;
60006;SDS011;45863;50.336;3.536;2022-09-29T04:50:22;8.52;;;4.68;;
60006;SDS011;45863;50.336;3.536;2022-09-29T04:52:50;9.70;;;5.00;;
60006;SDS011;45863;50.336;3.536;2022-09-29T04:55:18;9.15;;;4.65;;
60006;SDS011;45863;50.336;3.536;2022-09-29T04:57:43;10.10;;;4.38;;
60006;SDS011;45863;50.336;3.536;2022-09-29T05:00:10;10.63;;;5.30;;
60006;SDS011;45863;50.336;3.536;2022-09-29T05:02:38;10.13;;;4.88;;
60006;SDS011;45863;50.336;3.536;2022-09-29T05:05:06;11.20;;;5.35;;
60006;SDS011;45863;50.336;3.536;2022-09-29T05:07:38;10.07;;;4.72;;
60006;SDS011;45863;50.336;3.536;2022-09-29T05:10:06;10.93;;;4.93;;
60006;SDS011;45863;50.336;3.536;2022-09-29T05:12:32;8.18;;;4.60;;
60006;SDS011;45863;50.336;3.536;2022-09-29T05:15:03;7.88;;;4.43;;
60006;SDS011;45863;50.336;3.536;2022-09-29T05:17:52;12.40;;;5.35;;
60006;SDS011;45863;50.336;3.536;2022-09-29T05:20:20;8.70;;;4.60;;
60006;SDS011;45863;50.336;3.536;2022-09-29T05:22:45;10.10;;;5.05;;
60006;SDS011;45863;50.336;3.536;2022-09-29T05:25:11;12.00;;;5.30;;
60006;SDS011;45863;50.336;3.536;2022-09-29T05:27:36;9.60;;;5.60;;
60006;SDS011;45863;50.336;3.536;2022-09-29T05:30:02;10.18;;;5.60;;
60006;SDS011;45863;50.336;3.536;2022-09-29T05:32:27;10.30;;;5.25;;
60006;SDS011;45863;50.336;3.536;2022-09-29T05:34:53;15.87;;;6.37;;
60006;SDS011;45863;50.336;3.536;2022-09-29T05:37:18;12.75;;;5.53;;
60006;SDS011;45863;50.336;3.536;2022-09-29T05:39:43;9.20;;;4.68;;
60006;SDS011;45863;50.336;3.536;2022-09-29T05:42:09;11.85;;;5.00;;
60006;SDS011;45863;50.336;3.536;2022-09-29T05:44:35;13.13;;;5.10;;
60006;SDS011;45863;50.336;3.536;2022-09-29T05:47:00;8.18;;;4.32;;
60006;SDS011;45863;50.336;3.536;2022-09-29T05:49:26;7.85;;;4.50;;
60006;SDS011;45863;50.336;3.536;2022-09-29T05:51:51;8.63;;;3.88;;
60006;SDS011;45863;50.336;3.536;2022-09-29T05:54:16;10.40;;;4.97;;
60006;SDS011;45863;50.336;3.536;2022-09-29T05:56:41;11.30;;;4.95;;
60006;SDS011;45863;50.336;3.536;2022-09-29T05:59:07;10.15;;;4.82;;
60006;SDS011;45863;50.336;3.536;2022-09-29T06:01:33;11.10;;;5.30;;
60006;SDS011;45863;50.336;3.536;2022-09-29T06:03:58;12.73;;;5.45;;
60006;SDS011;45863;50.336;3.536;2022-09-29T06:06:25;10.32;;;5.22;;
60006;SDS011;45863;50.336;3.536;2022-09-29T06:08:50;11.15;;;5.10;;
60006;SDS011;45863;50.336;3.536;2022-09-29T06:11:17;13.55;;;5.90;;
60006;SDS011;45863;50.336;3.536;2022-09-29T06:13:44;9.73;;;4.75;;
60006;SDS011;45863;50.336;3.536;2022-09-29T06:16:10;9.70;;;4.82;;
60006;SDS011;45863;50.336;3.536;2022-09-29T06:18:35;9.70;;;5.18;;
60006;SDS011;45863;50.336;3.536;2022-09-29T06:21:02;9.77;;;5.57;;
60006;SDS011;45863;50.336;3.536;2022-09-29T06:23:27;9.80;;;5.88;;
60006;SDS011;45863;50.336;3.536;2022-09-29T06:25:57;9.73;;;5.20;;
60006;SDS011;45863;50.336;3.536;2022-09-29T06:28:22;8.82;;;5.38;;
60006;SDS011;45863;50.336;3.536;2022-09-29T06:30:48;13.38;;;5.72;;
60006;SDS011;45863;50.336;3.536;2022-09-29T06:33:13;10.07;;;5.20;;
60006;SDS011;45863;50.336;3.536;2022-09-29T06:35:38;8.43;;;4.80;;
60006;SDS011;45863;50.336;3.536;2022-09-29T06:38:22;10.52;;;5.82;;
60006;SDS011;45863;50.336;3.536;2022-09-29T06:40:53;16.73;;;7.22;;
60006;SDS011;45863;50.336;3.536;2022-09-29T06:43:18;19.55;;;9.20;;
60006;SDS011;45863;50.336;3.536;2022-09-29T06:45:44;13.00;;;6.88;;
60006;SDS011;45863;50.336;3.536;2022-09-29T06:48:09;16.60;;;8.50;;
60006;SDS011;45863;50.336;3.536;2022-09-29T06:50:35;16.23;;;8.52;;
60006;SDS011;45863;50.336;3.536;2022-09-29T06:53:00;16.58;;;8.90;;
60006;SDS011;45863;50.336;3.536;2022-09-29T06:55:25;16.80;;;8.63;;
60006;SDS011;45863;50.336;3.536;2022-09-29T06:57:51;14.73;;;7.38;;
60006;SDS011;45863;50.336;3.536;2022-09-29T07:00:16;14.43;;;7.83;;
60006;SDS011;45863;50.336;3.536;2022-09-29T07:02:44;12.13;;;6.85;;
60006;SDS011;45863;50.336;3.536;2022-09-29T07:05:09;20.05;;;9.18;;
60006;SDS011;45863;50.336;3.536;2022-09-29T07:07:34;22.08;;;8.80;;
60006;SDS011;45863;50.336;3.536;2022-09-29T07:10:00;19.08;;;8.13;;
60006;SDS011;45863;50.336;3.536;2022-09-29T07:12:25;16.48;;;7.18;;
60006;SDS011;45863;50.336;3.536;2022-09-29T07:14:51;14.17;;;7.30;;
60006;SDS011;45863;50.336;3.536;2022-09-29T07:17:16;15.48;;;6.28;;
60006;SDS011;45863;50.336;3.536;2022-09-29T07:19:41;12.18;;;5.95;;
60006;SDS011;45863;50.336;3.536;2022-09-29T07:22:06;12.07;;;5.70;;
60006;SDS011;45863;50.336;3.536;2022-09-29T07:24:33;13.70;;;5.45;;
60006;SDS011;45863;50.336;3.536;2022-09-29T07:26:58;11.30;;;4.80;;
60006;SDS011;45863;50.336;3.536;2022-09-29T07:29:24;9.80;;;5.10;;
60006;SDS011;45863;50.336;3.536;2022-09-29T07:31:49;10.33;;;4.87;;
60006;SDS011;45863;50.336;3.536;2022-09-29T07:34:16;9.70;;;4.20;;
60006;SDS011;45863;50.336;3.536;2022-09-29T07:36:41;11.75;;;5.35;;
60006;SDS011;45863;50.336;3.536;2022-09-29T07:39:07;9.43;;;5.22;;
60006;SDS011;45863;50.336;3.536;2022-09-29T07:41:32;8.43;;;4.43;;
60006;SDS011;45863;50.336;3.536;2022-09-29T07:43:57;15.18;;;5.70;;
60006;SDS011;45863;50.336;3.536;2022-09-29T07:46:22;10.23;;;4.00;;
60006;SDS011;45863;50.336;3.536;2022-09-29T07:48:47;9.70;;;4.77;;
60006;SDS011;45863;50.336;3.536;2022-09-29T07:51:14;9.05;;;4.72;;
60006;SDS011;45863;50.336;3.536;2022-09-29T07:53:39;9.60;;;5.00;;
60006;SDS011;45863;50.336;3.536;2022-09-29T07:56:14;10.40;;;4.97;;
60006;SDS011;45863;50.336;3.536;2022-09-29T07:58:41;12.48;;;4.70;;
60006;SDS011;45863;50.336;3.536;2022-09-29T08:01:07;13.48;;;5.38;;
60006;SDS011;45863;50.336;3.536;2022-09-29T08:03:35;9.52;;;5.25;;
60006;SDS011;45863;50.336;3.536;2022-09-29T08:06:00;8.40;;;5.10;;
60006;SDS011;45863;50.336;3.536;2022-09-29T08:08:25;11.80;;;5.03;;
60006;SDS011;45863;50.336;3.536;2022-09-29T08:10:51;8.38;;;4.85;;
60006;SDS011;45863;50.336;3.536;2022-09-29T08:13:16;9.23;;;5.30;;
60006;SDS011;45863;50.336;3.536;2022-09-29T08:15:41;10.20;;;5.63;;
60006;SDS011;45863;50.336;3.536;2022-09-29T08:18:06;8.85;;;4.43;;
60006;SDS011;45863;50.336;3.536;2022-09-29T08:20:32;11.75;;;5.10;;
60006;SDS011;45863;50.336;3.536;2022-09-29T08:22:58;8.70;;;4.97;;
60006;SDS011;45863;50.336;3.536;2022-09-29T08:25:24;9.97;;;4.87;;
60006;SDS011;45863;50.336;3.536;2022-09-29T08:27:50;12.15;;;5.03;;
60006;SDS011;45863;50.336;3.536;2022-09-29T08:30:15;10.10;;;5.38;;
60006;SDS011;45863;50.336;3.536;2022-09-29T08:32:40;10.15;;;5.13;;
60006;SDS011;45863;50.336;3.536;2022-09-29T08:35:06;8.77;;;4.93;;
60006;SDS011;45863;50.336;3.536;2022-09-29T08:37:32;11.48;;;5.97;;
60006;SDS011;45863;50.336;3.536;2022-09-29T08:39:57;15.02;;;5.93;;
60006;SDS011;45863;50.336;3.536;2022-09-29T08:42:33;10.68;;;5.95;;
60006;SDS011;45863;50.336;3.536;2022-09-29T08:45:03;12.85;;;6.18;;
60006;SDS011;45863;50.336;3.536;2022-09-29T08:47:32;10.93;;;5.70;;
60006;SDS011;45863;50.336;3.536;2022-09-29T08:49:59;15.68;;;7.70;;
60006;SDS011;45863;50.336;3.536;2022-09-29T08:52:31;17.38;;;8.55;;
60006;SDS011;45863;50.336;3.536;2022-09-29T08:55:21;14.45;;;6.30;;
60006;SDS011;45863;50.336;3.536;2022-09-29T08:57:49;11.55;;;5.25;;
60006;SDS011;45863;50.336;3.536;2022-09-29T09:00:16;14.95;;;6.55;;
60006;SDS011;45863;50.336;3.536;2022-09-29T09:20:35;23.95;;;10.43;;
60006;SDS011;45863;50.336;3.536;2022-09-29T09:23:12;35.08;;;14.63;;
60006;SDS011;45863;50.336;3.536;2022-09-29T09:25:47;35.33;;;15.90;;
60006;SDS011;45863;50.336;3.536;2022-09-29T09:28:15;36.08;;;15.80;;
60006;SDS011;45863;50.336;3.536;2022-09-29T09:30:43;30.92;;;14.15;;
60006;SDS011;45863;50.336;3.536;2022-09-29T09:33:17;32.17;;;14.05;;
60006;SDS011;45863;50.336;3.536;2022-09-29T09:35:46;36.25;;;15.75;;
60006;SDS011;45863;50.336;3.536;2022-09-29T09:38:20;35.58;;;15.55;;
60006;SDS011;45863;50.336;3.536;2022-09-29T09:40:48;29.48;;;13.85;;
60006;SDS011;45863;50.336;3.536;2022-09-29T09:43:35;31.25;;;14.07;;
60006;SDS011;45863;50.336;3.536;2022-09-29T09:46:02;29.02;;;12.10;;
60006;SDS011;45863;50.336;3.536;2022-09-29T09:48:34;28.85;;;11.25;;
60006;SDS011;45863;50.336;3.536;2022-09-29T09:51:01;26.55;;;10.52;;
60006;SDS011;45863;50.336;3.536;2022-09-29T09:53:36;24.80;;;9.85;;
60006;SDS011;45863;50.336;3.536;2022-09-29T09:56:09;42.78;;;17.27;;
60006;SDS011;45863;50.336;3.536;2022-09-29T10:01:21;45.67;;;16.15;;
60006;SDS011;45863;50.336;3.536;2022-09-29T10:03:46;32.38;;;13.55;;
60006;SDS011;45863;50.336;3.536;2022-09-29T10:06:11;28.90;;;11.73;;
60006;SDS011;45863;50.336;3.536;2022-09-29T10:08:40;29.60;;;12.52;;
60006;SDS011;45863;50.336;3.536;2022-09-29T10:13:40;22.75;;;9.07;;
60006;SDS011;45863;50.336;3.536;2022-09-29T10:16:19;23.20;;;8.63;;
60006;SDS011;45863;50.336;3.536;2022-09-29T10:18:48;23.98;;;8.77;;
60006;SDS011;45863;50.336;3.536;2022-09-29T10:21:34;20.25;;;8.35;;
60006;SDS011;45863;50.336;3.536;2022-09-29T10:24:00;17.80;;;8.05;;
60006;SDS011;45863;50.336;3.536;2022-09-29T10:26:26;19.15;;;7.72;;
60006;SDS011;45863;50.336;3.536;2022-09-29T10:28:56;15.98;;;6.70;;
60006;SDS011;45863;50.336;3.536;2022-09-29T10:31:26;12.18;;;5.93;;
60006;SDS011;45863;50.336;3.536;2022-09-29T10:33:56;12.75;;;6.35;;
60006;SDS011;45863;50.336;3.536;2022-09-29T10:36:22;18.37;;;6.40;;
60006;SDS011;45863;50.336;3.536;2022-09-29T10:38:49;13.27;;;6.60;;
60006;SDS011;45863;50.336;3.536;2022-09-29T10:41:14;12.45;;;4.28;;
60006;SDS011;45863;50.336;3.536;2022-09-29T10:43:41;10.57;;;4.63;;
60006;SDS011;45863;50.336;3.536;2022-09-29T10:52:01;11.35;;;3.30;;
60006;SDS011;45863;50.336;3.536;2022-09-29T10:54:28;8.70;;;3.50;;
60006;SDS011;45863;50.336;3.536;2022-09-29T10:56:56;6.38;;;3.30;;
60006;SDS011;45863;50.336;3.536;2022-09-29T10:59:22;6.47;;;2.80;;
60006;SDS011;45863;50.336;3.536;2022-09-29T11:01:53;5.20;;;2.10;;
60006;SDS011;45863;50.336;3.536;2022-09-29T11:04:22;6.40;;;2.42;;
60006;SDS011;45863;50.336;3.536;2022-09-29T11:06:48;8.13;;;2.60;;
60006;SDS011;45863;50.336;3.536;2022-09-29T11:16:55;5.72;;;3.08;;
60006;SDS011;45863;50.336;3.536;2022-09-29T11:19:21;8.13;;;3.30;;
60006;SDS011;45863;50.336;3.536;2022-09-29T11:39:47;5.22;;;2.50;;
60006;SDS011;45863;50.336;3.536;2022-09-29T11:42:32;8.10;;;2.78;;
60006;SDS011;45863;50.336;3.536;2022-09-29T11:45:02;6.93;;;2.63;;
60006;SDS011;45863;50.336;3.536;2022-09-29T11:55:32;5.65;;;2.70;;
60006;SDS011;45863;50.336;3.536;2022-09-29T11:58:06;6.38;;;3.03;;
60006;SDS011;45863;50.336;3.536;2022-09-29T12:10:43;5.72;;;2.33;;
60006;SDS011;45863;50.336;3.536;2022-09-29T12:19:05;6.80;;;2.30;;
60006;SDS011;45863;50.336;3.536;2022-09-29T12:21:05;7.63;;;2.67;;
60006;SDS011;45863;50.336;3.536;2022-09-29T12:23:31;9.30;;;2.83;;
60006;SDS011;45863;50.336;3.536;2022-09-29T12:26:08;5.95;;;2.70;;
60006;SDS011;45863;50.336;3.536;2022-09-29T12:28:53;7.15;;;3.50;;
60006;SDS011;45863;50.336;3.536;2022-09-29T12:31:24;8.75;;;2.60;;
60006;SDS011;45863;50.336;3.536;2022-09-29T12:33:53;6.82;;;2.20;;
60006;SDS011;45863;50.336;3.536;2022-09-29T12:44:48;4.68;;;1.80;;
60006;SDS011;45863;50.336;3.536;2022-09-29T12:47:27;9.77;;;1.90;;
60006;SDS011;45863;50.336;3.536;2022-09-29T12:52:19;6.00;;;1.90;;
60006;SDS011;45863;50.336;3.536;2022-09-29T12:54:53;5.70;;;2.00;;
60006;SDS011;45863;50.336;3.536;2022-09-29T12:57:20;5.30;;;1.88;;
60006;SDS011;45863;50.336;3.536;2022-09-29T12:59:56;8.23;;;1.90;;
60006;SDS011;45863;50.336;3.536;2022-09-29T13:05:03;6.72;;;2.13;;
60006;SDS011;45863;50.336;3.536;2022-09-29T13:15:21;5.18;;;1.52;;
60006;SDS011;45863;50.336;3.536;2022-09-29T13:30:53;4.13;;;1.55;;
60006;SDS011;45863;50.336;3.536;2022-09-29T13:33:20;5.70;;;1.83;;
60006;SDS011;45863;50.336;3.536;2022-09-29T13:35:47;6.82;;;2.78;;
60006;SDS011;45863;50.336;3.536;2022-09-29T13:38:18;5.85;;;2.28;;
60006;SDS011;45863;50.336;3.536;2022-09-29T13:43:13;8.57;;;2.25;;
60006;SDS011;45863;50.336;3.536;2022-09-29T13:45:55;5.68;;;1.73;;
60006;SDS011;45863;50.336;3.536;2022-09-29T13:50:55;6.10;;;1.88;;
60006;SDS011;45863;50.336;3.536;2022-09-29T13:58:24;6.00;;;2.97;;
60006;SDS011;45863;50.336;3.536;2022-09-29T14:00:50;9.68;;;2.40;;
60006;SDS011;45863;50.336;3.536;2022-09-29T14:03:26;8.68;;;2.40;;
60006;SDS011;45863;50.336;3.536;2022-09-29T14:06:00;6.20;;;2.88;;
60006;SDS011;45863;50.336;3.536;2022-09-29T14:08:28;9.00;;;2.70;;
60006;SDS011;45863;50.336;3.536;2022-09-29T14:10:57;6.65;;;2.85;;
60006;SDS011;45863;50.336;3.536;2022-09-29T14:13:28;6.53;;;3.03;;
60006;SDS011;45863;50.336;3.536;2022-09-29T14:21:01;5.78;;;2.40;;
60006;SDS011;45863;50.336;3.536;2022-09-29T14:26:40;6.80;;;2.60;;
60006;SDS011;45863;50.336;3.536;2022-09-29T14:28:53;6.35;;;2.25;;
60006;SDS011;45863;50.336;3.536;2022-09-29T14:31:20;9.57;;;2.80;;
60006;SDS011;45863;50.336;3.536;2022-09-29T14:33:46;5.18;;;2.28;;
60006;SDS011;45863;50.336;3.536;2022-09-29T14:36:14;5.55;;;2.60;;
60006;SDS011;45863;50.336;3.536;2022-09-29T14:38:43;7.43;;;2.60;;
60006;SDS011;45863;50.336;3.536;2022-09-29T14:46:06;8.57;;;3.42;;
60006;SDS011;45863;50.336;3.536;2022-09-29T14:51:48;9.27;;;4.32;;
60006;SDS011;45863;50.336;3.536;2022-09-29T15:04:38;10.60;;;4.38;;
60006;SDS011;45863;50.336;3.536;2022-09-29T15:07:04;7.10;;;3.25;;
60006;SDS011;45863;50.336;3.536;2022-09-29T15:09:35;5.93;;;2.55;;
60006;SDS011;45863;50.336;3.536;2022-09-29T15:12:01;5.93;;;2.40;;
60006;SDS011;45863;50.336;3.536;2022-09-29T15:14:30;5.60;;;2.67;;
60006;SDS011;45863;50.336;3.536;2022-09-29T15:17:06;6.55;;;2.38;;
60006;SDS011;45863;50.336;3.536;2022-09-29T15:19:43;6.15;;;2.72;;
60006;SDS011;45863;50.336;3.536;2022-09-29T15:25:03;4.88;;;2.10;;
60006;SDS011;45863;50.336;3.536;2022-09-29T15:27:33;9.10;;;2.70;;
60006;SDS011;45863;50.336;3.536;2022-09-29T15:29:59;5.22;;;2.20;;
60006;SDS011;45863;50.336;3.536;2022-09-29T15:32:28;5.20;;;2.30;;
60006;SDS011;45863;50.336;3.536;2022-09-29T15:35:01;6.75;;;2.67;;
60006;SDS011;45863;50.336;3.536;2022-09-29T15:37:29;4.38;;;2.15;;
60006;SDS011;45863;50.336;3.536;2022-09-29T15:40:20;7.15;;;2.40;;
60006;SDS011;45863;50.336;3.536;2022-09-29T15:42:45;5.10;;;2.47;;
60006;SDS011;45863;50.336;3.536;2022-09-29T15:45:18;6.93;;;2.40;;
60006;SDS011;45863;50.336;3.536;2022-09-29T15:47:46;3.70;;;2.05;;
60006;SDS011;45863;50.336;3.536;2022-09-29T15:50:21;7.30;;;2.22;;
60006;SDS011;45863;50.336;3.536;2022-09-29T15:52:47;4.43;;;2.22;;
60006;SDS011;45863;50.336;3.536;2022-09-29T15:55:15;7.45;;;2.65;;
60006;SDS011;45863;50.336;3.536;2022-09-29T15:57:45;8.55;;;2.67;;
60006;SDS011;45863;50.336;3.536;2022-09-29T16:05:31;5.10;;;2.20;;
60006;SDS011;45863;50.336;3.536;2022-09-29T16:08:01;5.68;;;2.28;;
60006;SDS011;45863;50.336;3.536;2022-09-29T16:10:31;4.80;;;2.15;;
60006;SDS011;45863;50.336;3.536;2022-09-29T16:13:07;7.32;;;2.13;;
60006;SDS011;45863;50.336;3.536;2022-09-29T16:15:43;5.90;;;2.45;;
60006;SDS011;45863;50.336;3.536;2022-09-29T16:18:12;3.85;;;1.73;;
60006;SDS011;45863;50.336;3.536;2022-09-29T16:20:41;5.80;;;1.85;;
60006;SDS011;45863;50.336;3.536;2022-09-29T16:23:07;4.57;;;1.85;;
60006;SDS011;45863;50.336;3.536;2022-09-29T16:25:32;3.95;;;1.77;;
60006;SDS011;45863;50.336;3.536;2022-09-29T16:27:58;5.05;;;1.67;;
60006;SDS011;45863;50.336;3.536;2022-09-29T16:30:28;5.22;;;2.03;;
60006;SDS011;45863;50.336;3.536;2022-09-29T16:32:55;7.85;;;1.88;;
60006;SDS011;45863;50.336;3.536;2022-09-29T16:38:08;4.45;;;1.85;;
60006;SDS011;45863;50.336;3.536;2022-09-29T16:40:36;5.50;;;2.30;;
60006;SDS011;45863;50.336;3.536;2022-09-29T16:43:02;6.57;;;2.13;;
60006;SDS011;45863;50.336;3.536;2022-09-29T16:45:28;6.68;;;2.30;;
60006;SDS011;45863;50.336;3.536;2022-09-29T16:47:53;5.68;;;2.00;;
60006;SDS011;45863;50.336;3.536;2022-09-29T16:50:19;7.63;;;2.35;;
60006;SDS011;45863;50.336;3.536;2022-09-29T16:52:45;6.35;;;1.75;;
60006;SDS011;45863;50.336;3.536;2022-09-29T16:55:24;6.45;;;1.80;;
60006;SDS011;45863;50.336;3.536;2022-09-29T17:00:26;6.05;;;1.90;;
60006;SDS011;45863;50.336;3.536;2022-09-29T17:02:52;5.53;;;2.00;;
60006;SDS011;45863;50.336;3.536;2022-09-29T17:05:18;6.85;;;1.67;;
60006;SDS011;45863;50.336;3.536;2022-09-29T17:07:45;3.72;;;1.60;;
60006;SDS011;45863;50.336;3.536;2022-09-29T17:10:15;9.15;;;2.05;;
60006;SDS011;45863;50.336;3.536;2022-09-29T17:12:41;6.80;;;1.73;;
60006;SDS011;45863;50.336;3.536;2022-09-29T17:15:08;8.77;;;1.92;;
60006;SDS011;45863;50.336;3.536;2022-09-29T17:17:33;4.65;;;1.55;;
60006;SDS011;45863;50.336;3.536;2022-09-29T17:19:59;5.72;;;1.58;;
60006;SDS011;45863;50.336;3.536;2022-09-29T17:22:30;8.00;;;1.50;;
60006;SDS011;45863;50.336;3.536;2022-09-29T17:24:56;5.03;;;1.77;;
60006;SDS011;45863;50.336;3.536;2022-09-29T17:27:22;6.25;;;2.10;;
60006;SDS011;45863;50.336;3.536;2022-09-29T17:30:07;6.80;;;2.70;;
60006;SDS011;45863;50.336;3.536;2022-09-29T17:32:32;9.48;;;1.90;;
60006;SDS011;45863;50.336;3.536;2022-09-29T17:34:59;5.45;;;1.92;;
60006;SDS011;45863;50.336;3.536;2022-09-29T17:37:25;7.53;;;2.05;;
60006;SDS011;45863;50.336;3.536;2022-09-29T17:39:50;8.63;;;2.13;;
60006;SDS011;45863;50.336;3.536;2022-09-29T17:42:15;5.87;;;1.87;;
60006;SDS011;45863;50.336;3.536;2022-09-29T17:44:41;5.50;;;1.85;;
60006;SDS011;45863;50.336;3.536;2022-09-29T17:47:12;9.43;;;2.03;;
60006;SDS011;45863;50.336;3.536;2022-09-29T17:49:38;7.65;;;2.00;;
60006;SDS011;45863;50.336;3.536;2022-09-29T17:52:04;9.20;;;2.67;;
60006;SDS011;45863;50.336;3.536;2022-09-29T17:54:31;8.18;;;2.10;;
60006;SDS011;45863;50.336;3.536;2022-09-29T17:56:59;4.47;;;1.80;;
60006;SDS011;45863;50.336;3.536;2022-09-29T17:59:24;8.77;;;2.70;;
60006;SDS011;45863;50.336;3.536;2022-09-29T18:01:49;6.53;;;2.20;;
60006;SDS011;45863;50.336;3.536;2022-09-29T18:04:15;6.82;;;2.15;;
60006;SDS011;45863;50.336;3.536;2022-09-29T18:06:40;6.83;;;2.60;;
60006;SDS011;45863;50.336;3.536;2022-09-29T18:09:13;10.32;;;3.15;;
60006;SDS011;45863;50.336;3.536;2022-09-29T18:11:39;10.63;;;3.00;;